sensor_id;sensor_type;location;lat;lon;timestamp;temperature;humidity
47861;HTU21D;33620;52.340;5.984;2023-07-31T00:01:14;16.43;90.79
47861;HTU21D;33620;52.340;5.984;2023-07-31T00:03:39;16.43;91.32
47861;HTU21D;33620;52.340;5.984;2023-07-31T00:06:05;16.40;91.18
47861;HTU21D;33620;52.340;5.984;2023-07-31T00:08:30;16.37;91.50
47861;HTU21D;33620;52.340;5.984;2023-07-31T00:10:56;16.36;91.84
47861;HTU21D;33620;52.340;5.984;2023-07-31T00:13:21;16.39;91.76
47861;HTU21D;33620;52.340;5.984;2023-07-31T00:15:46;16.45;91.85
47861;HTU21D;33620;52.340;5.984;2023-07-31T00:18:12;16.44;91.52
47861;HTU21D;33620;52.340;5.984;2023-07-31T00:20:37;16.46;91.82
47861;HTU21D;33620;52.340;5.984;2023-07-31T00:23:03;16.52;91.86
47861;HTU21D;33620;52.340;5.984;2023-07-31T00:25:28;16.59;91.79
47861;HTU21D;33620;52.340;5.984;2023-07-31T00:27:54;16.60;91.05
47861;HTU21D;33620;52.340;5.984;2023-07-31T00:30:19;16.58;91.49
47861;HTU21D;33620;52.340;5.984;2023-07-31T00:32:44;16.61;91.53
47861;HTU21D;33620;52.340;5.984;2023-07-31T00:35:10;16.64;91.59
47861;HTU21D;33620;52.340;5.984;2023-07-31T00:37:35;16.69;91.58
47861;HTU21D;33620;52.340;5.984;2023-07-31T00:40:01;16.70;91.15
47861;HTU21D;33620;52.340;5.984;2023-07-31T00:42:28;16.73;91.24
47861;HTU21D;33620;52.340;5.984;2023-07-31T00:44:54;16.74;91.18
47861;HTU21D;33620;52.340;5.984;2023-07-31T00:47:19;16.74;91.13
47861;HTU21D;33620;52.340;5.984;2023-07-31T00:49:45;16.73;90.89
47861;HTU21D;33620;52.340;5.984;2023-07-31T00:52:10;16.73;91.31
47861;HTU21D;33620;52.340;5.984;2023-07-31T00:54:36;16.73;91.53
47861;HTU21D;33620;52.340;5.984;2023-07-31T00:57:02;16.76;91.52
47861;HTU21D;33620;52.340;5.984;2023-07-31T00:59:27;16.80;91.65
47861;HTU21D;33620;52.340;5.984;2023-07-31T01:01:53;16.79;91.55
47861;HTU21D;33620;52.340;5.984;2023-07-31T01:04:18;16.80;91.66
47861;HTU21D;33620;52.340;5.984;2023-07-31T01:07:11;16.82;91.99
47861;HTU21D;33620;52.340;5.984;2023-07-31T01:12:20;16.79;91.98
47861;HTU21D;33620;52.340;5.984;2023-07-31T01:15:11;16.80;92.27
47861;HTU21D;33620;52.340;5.984;2023-07-31T01:17:38;16.84;92.37
47861;HTU21D;33620;52.340;5.984;2023-07-31T01:20:08;16.88;92.46
47861;HTU21D;33620;52.340;5.984;2023-07-31T01:28:02;16.85;92.38
47861;HTU21D;33620;52.340;5.984;2023-07-31T01:30:32;16.86;92.85
47861;HTU21D;33620;52.340;5.984;2023-07-31T01:33:03;16.88;93.00
47861;HTU21D;33620;52.340;5.984;2023-07-31T01:35:34;16.87;92.72
47861;HTU21D;33620;52.340;5.984;2023-07-31T01:37:59;16.86;93.08
47861;HTU21D;33620;52.340;5.984;2023-07-31T01:40:25;16.86;93.24
47861;HTU21D;33620;52.340;5.984;2023-07-31T01:42:50;16.88;93.12
47861;HTU21D;33620;52.340;5.984;2023-07-31T01:45:15;16.88;93.40
47861;HTU21D;33620;52.340;5.984;2023-07-31T01:47:41;16.90;93.20
47861;HTU21D;33620;52.340;5.984;2023-07-31T01:50:06;16.86;93.49
47861;HTU21D;33620;52.340;5.984;2023-07-31T01:52:32;16.89;93.60
47861;HTU21D;33620;52.340;5.984;2023-07-31T01:54:57;16.91;93.43
47861;HTU21D;33620;52.340;5.984;2023-07-31T01:57:23;16.90;93.51
47861;HTU21D;33620;52.340;5.984;2023-07-31T01:59:48;16.94;93.65
47861;HTU21D;33620;52.340;5.984;2023-07-31T02:02:14;16.96;93.44
47861;HTU21D;33620;52.340;5.984;2023-07-31T02:04:39;16.95;93.49
47861;HTU21D;33620;52.340;5.984;2023-07-31T02:07:06;16.99;93.53
47861;HTU21D;33620;52.340;5.984;2023-07-31T02:09:31;16.99;93.37
47861;HTU21D;33620;52.340;5.984;2023-07-31T02:11:56;17.00;93.26
47861;HTU21D;33620;52.340;5.984;2023-07-31T02:14:22;17.00;93.20
47861;HTU21D;33620;52.340;5.984;2023-07-31T02:16:47;16.94;93.38
47861;HTU21D;33620;52.340;5.984;2023-07-31T02:19:12;16.93;93.67
47861;HTU21D;33620;52.340;5.984;2023-07-31T02:21:38;16.86;94.08
47861;HTU21D;33620;52.340;5.984;2023-07-31T02:24:03;16.87;94.30
47861;HTU21D;33620;52.340;5.984;2023-07-31T02:26:29;16.87;94.62
47861;HTU21D;33620;52.340;5.984;2023-07-31T02:28:54;16.88;94.72
47861;HTU21D;33620;52.340;5.984;2023-07-31T02:31:20;16.89;94.96
47861;HTU21D;33620;52.340;5.984;2023-07-31T02:33:45;16.91;94.85
47861;HTU21D;33620;52.340;5.984;2023-07-31T02:36:10;16.88;95.05
47861;HTU21D;33620;52.340;5.984;2023-07-31T02:38:36;16.88;95.33
47861;HTU21D;33620;52.340;5.984;2023-07-31T02:41:01;16.90;95.38
47861;HTU21D;33620;52.340;5.984;2023-07-31T02:43:27;16.88;95.53
47861;HTU21D;33620;52.340;5.984;2023-07-31T02:45:52;16.92;95.66
47861;HTU21D;33620;52.340;5.984;2023-07-31T02:48:18;16.90;95.77
47861;HTU21D;33620;52.340;5.984;2023-07-31T02:50:44;16.94;95.75
47861;HTU21D;33620;52.340;5.984;2023-07-31T02:53:10;16.94;95.64
47861;HTU21D;33620;52.340;5.984;2023-07-31T02:55:35;16.96;95.59
47861;HTU21D;33620;52.340;5.984;2023-07-31T02:58:01;16.96;95.49
47861;HTU21D;33620;52.340;5.984;2023-07-31T03:00:26;16.98;95.59
47861;HTU21D;33620;52.340;5.984;2023-07-31T03:02:51;17.00;95.46
47861;HTU21D;33620;52.340;5.984;2023-07-31T03:05:17;17.00;95.34
47861;HTU21D;33620;52.340;5.984;2023-07-31T03:07:42;16.98;95.46
47861;HTU21D;33620;52.340;5.984;2023-07-31T03:10:08;17.00;95.57
47861;HTU21D;33620;52.340;5.984;2023-07-31T03:12:33;17.01;95.59
47861;HTU21D;33620;52.340;5.984;2023-07-31T03:14:59;17.01;95.65
47861;HTU21D;33620;52.340;5.984;2023-07-31T03:17:24;17.05;95.53
47861;HTU21D;33620;52.340;5.984;2023-07-31T03:19:50;17.02;95.30
47861;HTU21D;33620;52.340;5.984;2023-07-31T03:22:15;17.06;95.35
47861;HTU21D;33620;52.340;5.984;2023-07-31T03:24:40;17.01;95.26
47861;HTU21D;33620;52.340;5.984;2023-07-31T03:27:06;17.03;95.35
47861;HTU21D;33620;52.340;5.984;2023-07-31T03:29:31;17.07;95.45
47861;HTU21D;33620;52.340;5.984;2023-07-31T03:31:57;17.11;95.41
47861;HTU21D;33620;52.340;5.984;2023-07-31T03:34:22;17.13;95.38
47861;HTU21D;33620;52.340;5.984;2023-07-31T03:36:47;17.09;95.00
47861;HTU21D;33620;52.340;5.984;2023-07-31T03:39:13;17.05;95.14
47861;HTU21D;33620;52.340;5.984;2023-07-31T03:41:38;17.09;95.27
47861;HTU21D;33620;52.340;5.984;2023-07-31T03:44:03;17.11;95.17
47861;HTU21D;33620;52.340;5.984;2023-07-31T03:46:29;17.11;95.16
47861;HTU21D;33620;52.340;5.984;2023-07-31T03:48:54;17.11;95.14
47861;HTU21D;33620;52.340;5.984;2023-07-31T03:51:20;17.15;95.11
47861;HTU21D;33620;52.340;5.984;2023-07-31T03:53:45;17.17;95.07
47861;HTU21D;33620;52.340;5.984;2023-07-31T03:56:11;17.19;94.91
47861;HTU21D;33620;52.340;5.984;2023-07-31T03:58:36;17.15;94.88
47861;HTU21D;33620;52.340;5.984;2023-07-31T04:01:02;17.15;94.93
47861;HTU21D;33620;52.340;5.984;2023-07-31T04:03:28;17.15;95.02
47861;HTU21D;33620;52.340;5.984;2023-07-31T04:05:54;17.15;95.03
47861;HTU21D;33620;52.340;5.984;2023-07-31T04:08:21;17.18;95.12
47861;HTU21D;33620;52.340;5.984;2023-07-31T04:10:47;17.20;94.99
47861;HTU21D;33620;52.340;5.984;2023-07-31T04:13:12;17.21;94.86
47861;HTU21D;33620;52.340;5.984;2023-07-31T04:15:38;17.16;94.73
47861;HTU21D;33620;52.340;5.984;2023-07-31T04:18:04;17.18;94.75
47861;HTU21D;33620;52.340;5.984;2023-07-31T04:20:30;17.20;94.80
47861;HTU21D;33620;52.340;5.984;2023-07-31T04:22:55;17.19;94.46
47861;HTU21D;33620;52.340;5.984;2023-07-31T04:25:21;17.16;94.49
47861;HTU21D;33620;52.340;5.984;2023-07-31T04:27:46;17.09;94.40
47861;HTU21D;33620;52.340;5.984;2023-07-31T04:30:11;17.10;94.56
47861;HTU21D;33620;52.340;5.984;2023-07-31T04:32:37;17.07;94.41
47861;HTU21D;33620;52.340;5.984;2023-07-31T04:35:03;17.08;94.46
47861;HTU21D;33620;52.340;5.984;2023-07-31T04:37:28;17.06;94.59
47861;HTU21D;33620;52.340;5.984;2023-07-31T04:39:54;17.03;94.49
47861;HTU21D;33620;52.340;5.984;2023-07-31T04:42:19;17.05;94.67
47861;HTU21D;33620;52.340;5.984;2023-07-31T04:44:44;17.06;94.74
47861;HTU21D;33620;52.340;5.984;2023-07-31T04:47:10;17.09;94.70
47861;HTU21D;33620;52.340;5.984;2023-07-31T04:49:35;17.10;94.62
47861;HTU21D;33620;52.340;5.984;2023-07-31T04:52:00;17.09;94.33
47861;HTU21D;33620;52.340;5.984;2023-07-31T04:54:26;17.07;94.45
47861;HTU21D;33620;52.340;5.984;2023-07-31T04:56:51;17.08;94.49
47861;HTU21D;33620;52.340;5.984;2023-07-31T04:59:17;17.06;94.01
47861;HTU21D;33620;52.340;5.984;2023-07-31T05:01:43;17.03;94.04
47861;HTU21D;33620;52.340;5.984;2023-07-31T05:04:12;17.04;94.30
47861;HTU21D;33620;52.340;5.984;2023-07-31T05:06:38;17.05;94.33
47861;HTU21D;33620;52.340;5.984;2023-07-31T05:09:03;17.06;94.29
47861;HTU21D;33620;52.340;5.984;2023-07-31T05:11:28;17.05;94.18
47861;HTU21D;33620;52.340;5.984;2023-07-31T05:13:54;17.01;93.82
47861;HTU21D;33620;52.340;5.984;2023-07-31T05:16:19;17.05;94.16
47861;HTU21D;33620;52.340;5.984;2023-07-31T05:18:44;17.06;93.84
47861;HTU21D;33620;52.340;5.984;2023-07-31T05:21:10;17.06;93.92
47861;HTU21D;33620;52.340;5.984;2023-07-31T05:23:35;17.08;94.12
47861;HTU21D;33620;52.340;5.984;2023-07-31T05:26:07;17.09;94.10
47861;HTU21D;33620;52.340;5.984;2023-07-31T05:28:35;17.14;94.07
47861;HTU21D;33620;52.340;5.984;2023-07-31T05:31:02;17.11;93.78
47861;HTU21D;33620;52.340;5.984;2023-07-31T05:33:28;17.10;93.76
47861;HTU21D;33620;52.340;5.984;2023-07-31T05:35:53;17.13;93.72
47861;HTU21D;33620;52.340;5.984;2023-07-31T05:38:19;17.09;93.54
47861;HTU21D;33620;52.340;5.984;2023-07-31T05:40:44;17.11;93.78
47861;HTU21D;33620;52.340;5.984;2023-07-31T05:43:09;17.10;93.65
47861;HTU21D;33620;52.340;5.984;2023-07-31T05:45:35;17.00;93.30
47861;HTU21D;33620;52.340;5.984;2023-07-31T05:48:02;17.02;93.83
47861;HTU21D;33620;52.340;5.984;2023-07-31T05:50:28;17.04;94.14
47861;HTU21D;33620;52.340;5.984;2023-07-31T05:52:53;17.03;94.08
47861;HTU21D;33620;52.340;5.984;2023-07-31T05:55:18;17.04;94.30
47861;HTU21D;33620;52.340;5.984;2023-07-31T05:57:44;17.04;94.09
47861;HTU21D;33620;52.340;5.984;2023-07-31T06:00:11;17.01;94.22
47861;HTU21D;33620;52.340;5.984;2023-07-31T06:02:37;17.04;94.19
47861;HTU21D;33620;52.340;5.984;2023-07-31T06:05:03;17.01;93.83
47861;HTU21D;33620;52.340;5.984;2023-07-31T06:07:31;17.04;94.11
47861;HTU21D;33620;52.340;5.984;2023-07-31T06:09:56;16.98;93.72
47861;HTU21D;33620;52.340;5.984;2023-07-31T06:12:26;16.93;93.74
47861;HTU21D;33620;52.340;5.984;2023-07-31T06:14:52;16.99;94.01
47861;HTU21D;33620;52.340;5.984;2023-07-31T06:17:17;16.98;93.97
47861;HTU21D;33620;52.340;5.984;2023-07-31T06:19:43;16.93;93.78
47861;HTU21D;33620;52.340;5.984;2023-07-31T06:22:09;16.98;94.11
47861;HTU21D;33620;52.340;5.984;2023-07-31T06:24:34;16.95;94.02
47861;HTU21D;33620;52.340;5.984;2023-07-31T06:26:59;16.93;94.10
47861;HTU21D;33620;52.340;5.984;2023-07-31T06:29:25;16.92;94.40
47861;HTU21D;33620;52.340;5.984;2023-07-31T06:31:50;17.00;94.55
47861;HTU21D;33620;52.340;5.984;2023-07-31T06:34:15;17.03;94.32
47861;HTU21D;33620;52.340;5.984;2023-07-31T06:36:41;17.04;94.43
47861;HTU21D;33620;52.340;5.984;2023-07-31T06:39:06;17.05;94.19
47861;HTU21D;33620;52.340;5.984;2023-07-31T06:41:32;17.08;94.47
47861;HTU21D;33620;52.340;5.984;2023-07-31T06:43:57;17.09;94.52
47861;HTU21D;33620;52.340;5.984;2023-07-31T06:46:23;17.03;94.17
47861;HTU21D;33620;52.340;5.984;2023-07-31T06:48:48;17.02;94.34
47861;HTU21D;33620;52.340;5.984;2023-07-31T06:51:14;17.06;94.52
47861;HTU21D;33620;52.340;5.984;2023-07-31T06:53:39;17.06;94.28
47861;HTU21D;33620;52.340;5.984;2023-07-31T06:56:05;17.06;94.32
47861;HTU21D;33620;52.340;5.984;2023-07-31T06:58:30;17.08;94.47
47861;HTU21D;33620;52.340;5.984;2023-07-31T07:00:56;17.14;94.72
47861;HTU21D;33620;52.340;5.984;2023-07-31T07:03:21;17.11;94.68
47861;HTU21D;33620;52.340;5.984;2023-07-31T07:05:47;17.16;94.87
47861;HTU21D;33620;52.340;5.984;2023-07-31T07:08:12;17.21;94.91
47861;HTU21D;33620;52.340;5.984;2023-07-31T07:10:38;17.22;94.81
47861;HTU21D;33620;52.340;5.984;2023-07-31T07:13:03;17.23;94.68
47861;HTU21D;33620;52.340;5.984;2023-07-31T07:15:29;17.26;94.65
47861;HTU21D;33620;52.340;5.984;2023-07-31T07:17:55;17.29;95.02
47861;HTU21D;33620;52.340;5.984;2023-07-31T07:20:21;17.28;94.69
47861;HTU21D;33620;52.340;5.984;2023-07-31T07:22:46;17.31;94.94
47861;HTU21D;33620;52.340;5.984;2023-07-31T07:25:12;17.29;95.05
47861;HTU21D;33620;52.340;5.984;2023-07-31T07:27:37;17.30;95.12
47861;HTU21D;33620;52.340;5.984;2023-07-31T07:30:03;17.35;95.33
47861;HTU21D;33620;52.340;5.984;2023-07-31T07:32:28;17.41;95.20
47861;HTU21D;33620;52.340;5.984;2023-07-31T07:34:55;17.38;94.70
47861;HTU21D;33620;52.340;5.984;2023-07-31T07:37:21;17.44;95.17
47861;HTU21D;33620;52.340;5.984;2023-07-31T07:39:46;17.49;95.23
47861;HTU21D;33620;52.340;5.984;2023-07-31T07:42:12;17.51;95.33
47861;HTU21D;33620;52.340;5.984;2023-07-31T07:44:37;17.53;95.26
47861;HTU21D;33620;52.340;5.984;2023-07-31T07:47:03;17.51;95.06
47861;HTU21D;33620;52.340;5.984;2023-07-31T07:49:28;17.53;95.07
47861;HTU21D;33620;52.340;5.984;2023-07-31T07:51:54;17.53;95.07
47861;HTU21D;33620;52.340;5.984;2023-07-31T07:54:19;17.45;94.91
47861;HTU21D;33620;52.340;5.984;2023-07-31T07:56:47;17.43;95.16
47861;HTU21D;33620;52.340;5.984;2023-07-31T07:59:13;17.34;95.23
47861;HTU21D;33620;52.340;5.984;2023-07-31T08:01:38;17.41;95.55
47861;HTU21D;33620;52.340;5.984;2023-07-31T08:04:04;17.50;95.85
47861;HTU21D;33620;52.340;5.984;2023-07-31T08:06:29;17.51;95.55
47861;HTU21D;33620;52.340;5.984;2023-07-31T08:08:55;17.60;95.87
47861;HTU21D;33620;52.340;5.984;2023-07-31T08:11:21;17.63;95.79
47861;HTU21D;33620;52.340;5.984;2023-07-31T08:13:49;17.64;95.55
47861;HTU21D;33620;52.340;5.984;2023-07-31T08:16:14;17.68;95.46
47861;HTU21D;33620;52.340;5.984;2023-07-31T08:18:39;17.70;95.61
47861;HTU21D;33620;52.340;5.984;2023-07-31T08:21:05;17.75;95.39
47861;HTU21D;33620;52.340;5.984;2023-07-31T08:23:31;17.72;95.40
47861;HTU21D;33620;52.340;5.984;2023-07-31T08:25:56;17.76;95.62
47861;HTU21D;33620;52.340;5.984;2023-07-31T08:28:22;17.76;95.43
47861;HTU21D;33620;52.340;5.984;2023-07-31T08:30:47;17.75;95.39
47861;HTU21D;33620;52.340;5.984;2023-07-31T08:33:13;17.74;95.52
47861;HTU21D;33620;52.340;5.984;2023-07-31T08:35:38;17.79;95.73
47861;HTU21D;33620;52.340;5.984;2023-07-31T08:38:03;17.87;95.79
47861;HTU21D;33620;52.340;5.984;2023-07-31T08:40:29;17.87;95.46
47861;HTU21D;33620;52.340;5.984;2023-07-31T08:42:55;17.89;95.77
47861;HTU21D;33620;52.340;5.984;2023-07-31T08:45:27;17.90;95.72
47861;HTU21D;33620;52.340;5.984;2023-07-31T08:47:53;17.83;95.44
47861;HTU21D;33620;52.340;5.984;2023-07-31T08:50:20;17.82;95.78
47861;HTU21D;33620;52.340;5.984;2023-07-31T08:52:47;17.87;96.07
47861;HTU21D;33620;52.340;5.984;2023-07-31T08:55:13;17.91;96.43
47861;HTU21D;33620;52.340;5.984;2023-07-31T08:57:39;17.88;95.93
47861;HTU21D;33620;52.340;5.984;2023-07-31T09:00:06;17.88;96.07
47861;HTU21D;33620;52.340;5.984;2023-07-31T09:02:43;17.92;96.01
47861;HTU21D;33620;52.340;5.984;2023-07-31T09:05:10;17.96;96.01
47861;HTU21D;33620;52.340;5.984;2023-07-31T09:07:36;17.93;95.80
47861;HTU21D;33620;52.340;5.984;2023-07-31T09:10:03;17.84;95.87
47861;HTU21D;33620;52.340;5.984;2023-07-31T09:12:28;17.94;96.38
47861;HTU21D;33620;52.340;5.984;2023-07-31T09:14:54;17.99;96.33
47861;HTU21D;33620;52.340;5.984;2023-07-31T09:19:56;17.99;96.34
47861;HTU21D;33620;52.340;5.984;2023-07-31T09:22:34;18.06;96.71
47861;HTU21D;33620;52.340;5.984;2023-07-31T09:27:57;18.09;96.20
47861;HTU21D;33620;52.340;5.984;2023-07-31T09:30:23;18.13;96.34
47861;HTU21D;33620;52.340;5.984;2023-07-31T09:32:50;18.20;96.41
47861;HTU21D;33620;52.340;5.984;2023-07-31T09:37:52;18.21;95.88
47861;HTU21D;33620;52.340;5.984;2023-07-31T09:40:28;18.27;96.49
47861;HTU21D;33620;52.340;5.984;2023-07-31T09:43:08;18.23;96.13
47861;HTU21D;33620;52.340;5.984;2023-07-31T09:45:36;18.29;96.45
47861;HTU21D;33620;52.340;5.984;2023-07-31T09:48:02;18.28;95.98
47861;HTU21D;33620;52.340;5.984;2023-07-31T09:50:29;18.24;96.02
47861;HTU21D;33620;52.340;5.984;2023-07-31T09:52:54;18.38;96.44
47861;HTU21D;33620;52.340;5.984;2023-07-31T09:55:20;18.43;96.36
47861;HTU21D;33620;52.340;5.984;2023-07-31T09:57:46;18.50;96.30
47861;HTU21D;33620;52.340;5.984;2023-07-31T10:00:14;18.55;96.55
47861;HTU21D;33620;52.340;5.984;2023-07-31T10:02:40;18.59;96.36
47861;HTU21D;33620;52.340;5.984;2023-07-31T10:05:07;18.61;96.21
47861;HTU21D;33620;52.340;5.984;2023-07-31T10:07:37;18.63;96.20
47861;HTU21D;33620;52.340;5.984;2023-07-31T10:10:07;18.52;95.31
47861;HTU21D;33620;52.340;5.984;2023-07-31T10:12:34;18.54;95.68
47861;HTU21D;33620;52.340;5.984;2023-07-31T10:15:01;18.54;95.63
47861;HTU21D;33620;52.340;5.984;2023-07-31T10:17:27;18.57;95.97
47861;HTU21D;33620;52.340;5.984;2023-07-31T10:19:54;18.65;95.95
47861;HTU21D;33620;52.340;5.984;2023-07-31T10:22:21;18.69;95.85
47861;HTU21D;33620;52.340;5.984;2023-07-31T10:24:48;18.71;95.94
47861;HTU21D;33620;52.340;5.984;2023-07-31T10:27:14;18.70;95.72
47861;HTU21D;33620;52.340;5.984;2023-07-31T10:29:41;18.74;95.86
47861;HTU21D;33620;52.340;5.984;2023-07-31T10:32:09;18.74;95.32
47861;HTU21D;33620;52.340;5.984;2023-07-31T10:34:36;18.80;95.97
47861;HTU21D;33620;52.340;5.984;2023-07-31T10:42:46;18.91;95.49
47861;HTU21D;33620;52.340;5.984;2023-07-31T10:45:31;18.89;95.26
47861;HTU21D;33620;52.340;5.984;2023-07-31T10:48:01;18.86;95.10
47861;HTU21D;33620;52.340;5.984;2023-07-31T10:50:27;18.81;95.01
47861;HTU21D;33620;52.340;5.984;2023-07-31T10:52:54;18.78;95.36
47861;HTU21D;33620;52.340;5.984;2023-07-31T10:58:05;18.88;95.59
47861;HTU21D;33620;52.340;5.984;2023-07-31T11:00:31;18.96;95.82
47861;HTU21D;33620;52.340;5.984;2023-07-31T11:03:03;18.89;95.30
47861;HTU21D;33620;52.340;5.984;2023-07-31T11:05:49;18.94;95.33
47861;HTU21D;33620;52.340;5.984;2023-07-31T11:08:22;18.91;95.07
47861;HTU21D;33620;52.340;5.984;2023-07-31T11:10:50;18.93;95.36
47861;HTU21D;33620;52.340;5.984;2023-07-31T11:13:16;18.86;95.04
47861;HTU21D;33620;52.340;5.984;2023-07-31T11:15:42;18.98;95.50
47861;HTU21D;33620;52.340;5.984;2023-07-31T11:18:07;18.96;94.70
47861;HTU21D;33620;52.340;5.984;2023-07-31T11:20:34;18.97;94.59
47861;HTU21D;33620;52.340;5.984;2023-07-31T11:23:06;18.97;94.90
47861;HTU21D;33620;52.340;5.984;2023-07-31T11:25:32;18.95;94.82
47861;HTU21D;33620;52.340;5.984;2023-07-31T11:28:05;18.96;94.51
47861;HTU21D;33620;52.340;5.984;2023-07-31T11:30:31;19.00;94.80
47861;HTU21D;33620;52.340;5.984;2023-07-31T11:32:56;19.05;94.95
47861;HTU21D;33620;52.340;5.984;2023-07-31T11:35:21;18.98;94.69
47861;HTU21D;33620;52.340;5.984;2023-07-31T11:37:47;18.97;94.60
47861;HTU21D;33620;52.340;5.984;2023-07-31T11:40:14;19.00;94.79
47861;HTU21D;33620;52.340;5.984;2023-07-31T11:42:40;18.88;94.09
47861;HTU21D;33620;52.340;5.984;2023-07-31T11:45:09;18.92;94.54
47861;HTU21D;33620;52.340;5.984;2023-07-31T11:47:36;18.93;94.75
47861;HTU21D;33620;52.340;5.984;2023-07-31T11:50:06;18.94;94.95
47861;HTU21D;33620;52.340;5.984;2023-07-31T11:52:37;18.99;95.01
47861;HTU21D;33620;52.340;5.984;2023-07-31T11:55:04;18.97;94.62
47861;HTU21D;33620;52.340;5.984;2023-07-31T11:57:31;19.09;95.11
47861;HTU21D;33620;52.340;5.984;2023-07-31T11:59:57;19.15;95.38
47861;HTU21D;33620;52.340;5.984;2023-07-31T12:02:23;19.20;95.43
47861;HTU21D;33620;52.340;5.984;2023-07-31T12:04:48;19.20;95.07
47861;HTU21D;33620;52.340;5.984;2023-07-31T12:07:14;19.22;94.79
47861;HTU21D;33620;52.340;5.984;2023-07-31T12:09:51;19.25;95.02
47861;HTU21D;33620;52.340;5.984;2023-07-31T12:12:23;19.29;94.94
47861;HTU21D;33620;52.340;5.984;2023-07-31T12:14:49;19.27;94.56
47861;HTU21D;33620;52.340;5.984;2023-07-31T12:17:16;19.24;94.43
47861;HTU21D;33620;52.340;5.984;2023-07-31T12:19:42;19.25;94.58
47861;HTU21D;33620;52.340;5.984;2023-07-31T12:22:14;19.31;94.68
47861;HTU21D;33620;52.340;5.984;2023-07-31T12:24:41;19.38;94.53
47861;HTU21D;33620;52.340;5.984;2023-07-31T12:27:14;19.41;94.38
47861;HTU21D;33620;52.340;5.984;2023-07-31T12:29:41;19.47;94.43
47861;HTU21D;33620;52.340;5.984;2023-07-31T12:32:24;19.45;93.70
47861;HTU21D;33620;52.340;5.984;2023-07-31T12:34:51;19.41;93.10
47861;HTU21D;33620;52.340;5.984;2023-07-31T12:37:17;19.28;93.23
47861;HTU21D;33620;52.340;5.984;2023-07-31T12:39:42;19.33;93.67
47861;HTU21D;33620;52.340;5.984;2023-07-31T12:42:07;19.33;94.01
47861;HTU21D;33620;52.340;5.984;2023-07-31T12:44:33;19.27;93.78
47861;HTU21D;33620;52.340;5.984;2023-07-31T12:46:58;19.25;94.14
47861;HTU21D;33620;52.340;5.984;2023-07-31T12:49:24;19.11;94.08
47861;HTU21D;33620;52.340;5.984;2023-07-31T12:51:50;19.10;94.46
47861;HTU21D;33620;52.340;5.984;2023-07-31T12:54:15;19.14;94.86
47861;HTU21D;33620;52.340;5.984;2023-07-31T12:56:40;19.10;94.34
47861;HTU21D;33620;52.340;5.984;2023-07-31T12:59:06;19.03;94.34
47861;HTU21D;33620;52.340;5.984;2023-07-31T13:01:31;19.07;94.82
47861;HTU21D;33620;52.340;5.984;2023-07-31T13:03:57;19.10;94.94
47861;HTU21D;33620;52.340;5.984;2023-07-31T13:06:24;19.13;95.17
47861;HTU21D;33620;52.340;5.984;2023-07-31T13:08:49;19.13;95.04
47861;HTU21D;33620;52.340;5.984;2023-07-31T13:11:15;19.17;95.23
47861;HTU21D;33620;52.340;5.984;2023-07-31T13:13:40;19.15;95.04
47861;HTU21D;33620;52.340;5.984;2023-07-31T13:16:06;19.09;94.74
47861;HTU21D;33620;52.340;5.984;2023-07-31T13:18:31;19.10;94.93
47861;HTU21D;33620;52.340;5.984;2023-07-31T13:20:56;19.03;94.75
47861;HTU21D;33620;52.340;5.984;2023-07-31T13:23:22;19.10;95.30
47861;HTU21D;33620;52.340;5.984;2023-07-31T13:25:47;19.14;95.57
47861;HTU21D;33620;52.340;5.984;2023-07-31T13:28:12;19.16;95.66
47861;HTU21D;33620;52.340;5.984;2023-07-31T13:30:38;19.17;95.46
47861;HTU21D;33620;52.340;5.984;2023-07-31T13:33:03;19.17;95.06
47861;HTU21D;33620;52.340;5.984;2023-07-31T13:35:29;19.20;95.22
47861;HTU21D;33620;52.340;5.984;2023-07-31T13:37:56;19.21;95.20
47861;HTU21D;33620;52.340;5.984;2023-07-31T13:40:22;19.25;94.40
47861;HTU21D;33620;52.340;5.984;2023-07-31T13:42:47;19.38;94.90
47861;HTU21D;33620;52.340;5.984;2023-07-31T13:45:13;19.52;95.24
47861;HTU21D;33620;52.340;5.984;2023-07-31T13:47:39;19.52;94.22
47861;HTU21D;33620;52.340;5.984;2023-07-31T13:50:04;19.59;94.54
47861;HTU21D;33620;52.340;5.984;2023-07-31T13:52:30;19.62;94.34
47861;HTU21D;33620;52.340;5.984;2023-07-31T13:54:55;19.66;94.27
47861;HTU21D;33620;52.340;5.984;2023-07-31T13:57:20;19.71;94.31
47861;HTU21D;33620;52.340;5.984;2023-07-31T13:59:46;19.72;94.22
47861;HTU21D;33620;52.340;5.984;2023-07-31T14:02:11;19.67;93.32
47861;HTU21D;33620;52.340;5.984;2023-07-31T14:04:37;19.61;92.34
47861;HTU21D;33620;52.340;5.984;2023-07-31T14:07:02;19.66;93.00
47861;HTU21D;33620;52.340;5.984;2023-07-31T14:09:29;19.66;93.13
47861;HTU21D;33620;52.340;5.984;2023-07-31T14:11:55;19.69;93.26
47861;HTU21D;33620;52.340;5.984;2023-07-31T14:14:20;19.72;93.44
47861;HTU21D;33620;52.340;5.984;2023-07-31T14:16:46;19.66;92.36
47861;HTU21D;33620;52.340;5.984;2023-07-31T14:19:11;19.63;92.70
47861;HTU21D;33620;52.340;5.984;2023-07-31T14:21:36;19.63;92.94
47861;HTU21D;33620;52.340;5.984;2023-07-31T14:24:02;19.60;92.61
47861;HTU21D;33620;52.340;5.984;2023-07-31T14:26:27;19.56;92.84
47861;HTU21D;33620;52.340;5.984;2023-07-31T14:28:53;19.55;93.11
47861;HTU21D;33620;52.340;5.984;2023-07-31T14:31:18;19.48;93.38
47861;HTU21D;33620;52.340;5.984;2023-07-31T14:33:44;19.50;93.91
47861;HTU21D;33620;52.340;5.984;2023-07-31T14:36:09;19.47;94.21
47861;HTU21D;33620;52.340;5.984;2023-07-31T14:38:35;19.48;94.37
47861;HTU21D;33620;52.340;5.984;2023-07-31T14:41:00;19.50;94.40
47861;HTU21D;33620;52.340;5.984;2023-07-31T14:43:25;19.52;94.52
47861;HTU21D;33620;52.340;5.984;2023-07-31T14:45:51;19.50;94.59
47861;HTU21D;33620;52.340;5.984;2023-07-31T14:48:18;19.47;94.61
47861;HTU21D;33620;52.340;5.984;2023-07-31T14:50:44;19.40;94.10
47861;HTU21D;33620;52.340;5.984;2023-07-31T14:53:09;19.38;94.54
47861;HTU21D;33620;52.340;5.984;2023-07-31T14:55:34;19.32;94.40
47861;HTU21D;33620;52.340;5.984;2023-07-31T14:58:00;19.31;94.58
47861;HTU21D;33620;52.340;5.984;2023-07-31T15:00:25;19.27;94.64
47861;HTU21D;33620;52.340;5.984;2023-07-31T15:02:51;19.24;94.65
47861;HTU21D;33620;52.340;5.984;2023-07-31T15:05:17;19.23;94.91
47861;HTU21D;33620;52.340;5.984;2023-07-31T15:07:42;19.25;94.95
47861;HTU21D;33620;52.340;5.984;2023-07-31T15:10:08;19.24;95.04
47861;HTU21D;33620;52.340;5.984;2023-07-31T15:12:33;19.26;95.07
47861;HTU21D;33620;52.340;5.984;2023-07-31T15:14:59;19.26;95.08
47861;HTU21D;33620;52.340;5.984;2023-07-31T15:17:24;19.23;94.85
47861;HTU21D;33620;52.340;5.984;2023-07-31T15:19:50;19.24;94.88
47861;HTU21D;33620;52.340;5.984;2023-07-31T15:22:15;19.23;94.73
47861;HTU21D;33620;52.340;5.984;2023-07-31T15:24:41;19.14;94.72
47861;HTU21D;33620;52.340;5.984;2023-07-31T15:27:06;19.15;94.96
47861;HTU21D;33620;52.340;5.984;2023-07-31T15:29:33;19.16;95.07
47861;HTU21D;33620;52.340;5.984;2023-07-31T15:32:03;19.17;95.22
47861;HTU21D;33620;52.340;5.984;2023-07-31T15:34:28;19.16;95.14